createdAt,value
2018-11-12T00:01:54.339Z,10.50
2018-11-12T00:04:35.096Z,10.50
2018-11-12T00:07:03.064Z,10.50
2018-11-12T00:09:31.046Z,10.60
2018-11-12T00:12:02.530Z,10.50
2018-11-12T00:14:30.311Z,10.50
2018-11-12T00:16:58.063Z,10.50
2018-11-12T00:19:25.838Z,10.50
2018-11-12T00:21:53.610Z,10.50
2018-11-12T00:24:21.578Z,10.50
2018-11-12T00:26:49.272Z,10.50
2018-11-12T00:29:17.104Z,10.50
2018-11-12T00:31:51.373Z,10.50
2018-11-12T00:34:19.101Z,10.50
2018-11-12T00:36:46.851Z,10.50
2018-11-12T00:39:25.141Z,10.50
2018-11-12T00:41:52.868Z,10.50
2018-11-12T00:44:20.584Z,10.50
2018-11-12T00:46:56.904Z,10.50
2018-11-12T00:49:24.599Z,10.50
2018-11-12T00:51:52.565Z,10.40
2018-11-12T00:54:20.289Z,10.40
2018-11-12T00:56:48.028Z,10.40
2018-11-12T00:59:15.800Z,10.40
2018-11-12T01:01:43.573Z,10.40
2018-11-12T01:04:11.435Z,10.40
2018-11-12T01:06:43.392Z,10.40
2018-11-12T01:09:12.088Z,10.40
2018-11-12T01:11:39.809Z,10.40
2018-11-12T01:14:07.608Z,10.40
2018-11-12T01:16:35.380Z,10.40
2018-11-12T01:19:03.324Z,10.40
2018-11-12T01:21:31.063Z,10.40
2018-11-12T01:23:58.799Z,10.40
2018-11-12T01:26:39.554Z,10.40
2018-11-12T01:29:07.455Z,10.40
2018-11-12T01:31:35.204Z,10.40
2018-11-12T01:34:02.987Z,10.40
2018-11-12T01:36:30.913Z,10.40
2018-11-12T01:38:58.596Z,10.40
2018-11-12T01:41:26.298Z,10.40
2018-11-12T01:43:54.059Z,10.40
2018-11-12T01:46:21.788Z,10.40
2018-11-12T01:48:49.485Z,10.40
2018-11-12T01:53:56.957Z,10.40
2018-11-12T01:56:25.271Z,10.40
2018-11-12T01:59:00.237Z,10.50
2018-11-12T02:01:27.957Z,10.50
2018-11-12T02:03:55.785Z,10.50
2018-11-12T02:06:29.575Z,10.50
2018-11-12T02:08:57.452Z,10.50
2018-11-12T02:11:25.329Z,10.50
2018-11-12T02:13:53.580Z,10.40
2018-11-12T02:16:25.190Z,10.40
2018-11-12T02:18:52.960Z,10.40
2018-11-12T02:21:20.698Z,10.40
2018-11-12T02:23:48.436Z,10.40
2018-11-12T02:26:18.458Z,10.40
2018-11-12T02:28:46.155Z,10.40
2018-11-12T02:31:14.494Z,10.40
2018-11-12T02:33:45.822Z,10.40
2018-11-12T02:36:13.545Z,10.40
2018-11-12T02:38:41.287Z,10.40
2018-11-12T02:41:09.049Z,10.40
2018-11-12T02:43:36.813Z,10.40
2018-11-12T02:46:12.024Z,10.40
2018-11-12T02:48:39.809Z,10.50
2018-11-12T02:51:07.591Z,10.50
2018-11-12T02:53:40.122Z,10.50
2018-11-12T02:56:08.024Z,10.50
2018-11-12T02:58:36.831Z,10.60
2018-11-12T03:01:04.525Z,10.60
2018-11-12T03:03:32.359Z,10.60
2018-11-12T03:06:00.040Z,10.60
2018-11-12T03:08:27.765Z,10.60
2018-11-12T03:10:55.510Z,10.60
2018-11-12T03:13:23.198Z,10.60
2018-11-12T03:15:50.919Z,10.70
2018-11-12T03:18:27.865Z,10.70
2018-11-12T03:20:57.079Z,10.70
2018-11-12T03:23:24.943Z,10.70
2018-11-12T03:25:52.851Z,10.70
2018-11-12T03:28:20.689Z,10.70
2018-11-12T03:30:48.710Z,10.70
2018-11-12T03:33:16.748Z,10.70
2018-11-12T03:35:44.664Z,10.70
2018-11-12T03:40:53.295Z,10.70
2018-11-12T03:43:21.316Z,10.70
2018-11-12T03:45:49.248Z,10.70
2018-11-12T03:48:17.259Z,10.70
2018-11-12T03:50:51.058Z,10.70
2018-11-12T03:53:18.983Z,10.70
2018-11-12T03:55:46.978Z,10.70
2018-11-12T04:00:58.306Z,10.60
2018-11-12T04:03:26.210Z,10.70
2018-11-12T04:06:01.265Z,10.60
2018-11-12T04:08:29.153Z,10.60
2018-11-12T04:10:57.081Z,10.60
2018-11-12T04:13:29.300Z,10.60
2018-11-12T04:15:57.222Z,10.60
2018-11-12T04:18:25.153Z,10.60
2018-11-12T04:20:53.121Z,10.60
2018-11-12T04:23:21.008Z,10.60
2018-11-12T04:25:50.133Z,10.60
2018-11-12T04:28:18.114Z,10.50
2018-11-12T04:30:46.021Z,10.60
2018-11-12T04:33:13.939Z,10.50
2018-11-12T04:35:42.094Z,10.50
2018-11-12T04:38:09.957Z,10.50
2018-11-12T04:40:37.864Z,10.50
2018-11-12T04:43:05.847Z,10.50
2018-11-12T04:45:33.960Z,10.50
2018-11-12T04:48:01.960Z,10.50
2018-11-12T04:50:29.862Z,10.50
2018-11-12T04:52:57.810Z,10.50
2018-11-12T04:55:26.171Z,10.50
2018-11-12T04:57:54.239Z,10.50
2018-11-12T05:00:24.353Z,10.50
2018-11-12T05:02:56.577Z,10.50
2018-11-12T05:05:25.895Z,10.50
2018-11-12T05:07:54.070Z,10.50
2018-11-12T05:10:24.910Z,10.50
2018-11-12T05:12:53.346Z,10.50
2018-11-12T05:15:22.390Z,10.50
2018-11-12T05:17:54.330Z,10.50
2018-11-12T05:20:23.825Z,10.50
2018-11-12T05:22:51.781Z,10.50
2018-11-12T05:25:19.741Z,10.50
2018-11-12T05:27:47.692Z,10.50
2018-11-12T05:30:18.366Z,10.50
2018-11-12T05:32:50.483Z,10.50
2018-11-12T05:35:19.862Z,10.50
2018-11-12T05:37:47.864Z,10.50
2018-11-12T05:40:21.014Z,10.50
2018-11-12T05:42:49.237Z,10.50
2018-11-12T05:45:18.391Z,10.50
2018-11-12T05:47:46.527Z,10.50
2018-11-12T05:50:16.045Z,10.50
2018-11-12T05:52:45.276Z,10.50
2018-11-12T05:55:14.947Z,10.50
2018-11-12T05:57:43.877Z,10.50
2018-11-12T06:00:12.647Z,10.50
2018-11-12T06:02:44.926Z,10.50
2018-11-12T06:05:15.011Z,10.50
2018-11-12T06:07:45.125Z,10.50
2018-11-12T06:10:15.487Z,10.50
2018-11-12T06:12:44.171Z,10.50
2018-11-12T06:15:12.581Z,10.50
2018-11-12T06:20:23.621Z,10.50
2018-11-12T06:22:51.758Z,10.50
2018-11-12T06:25:21.155Z,10.50
2018-11-12T06:27:49.986Z,10.50
2018-11-12T06:30:19.152Z,10.50
2018-11-12T06:32:47.158Z,10.50
2018-11-12T06:35:15.998Z,10.50
2018-11-12T06:37:44.674Z,10.50
2018-11-12T06:40:14.195Z,10.50
2018-11-12T06:45:30.954Z,10.50
2018-11-12T06:47:59.853Z,10.50
2018-11-12T06:50:31.547Z,10.50
2018-11-12T06:53:00.971Z,10.50
2018-11-12T06:55:28.987Z,10.50
2018-11-12T06:58:05.451Z,10.50
2018-11-12T07:00:34.744Z,10.50
2018-11-12T07:03:02.789Z,10.50
2018-11-12T07:05:34.763Z,10.50
2018-11-12T07:08:02.869Z,10.50
2018-11-12T07:10:30.933Z,10.50
2018-11-12T07:13:02.034Z,10.50
2018-11-12T07:15:30.327Z,10.50
2018-11-12T07:17:58.194Z,10.50
2018-11-12T07:20:38.339Z,10.50
2018-11-12T07:23:06.178Z,10.50
2018-11-12T07:25:34.127Z,10.50
2018-11-12T07:28:08.364Z,10.50
2018-11-12T07:30:36.329Z,10.50
2018-11-12T07:33:05.526Z,10.50
2018-11-12T07:35:33.701Z,10.60
2018-11-12T07:38:01.643Z,10.60
2018-11-12T07:40:29.570Z,10.60
2018-11-12T07:42:57.618Z,10.60
2018-11-12T07:45:34.979Z,10.60
2018-11-12T07:48:02.919Z,10.60
2018-11-12T07:50:31.518Z,10.60
2018-11-12T07:53:11.108Z,10.60
2018-11-12T07:55:39.047Z,10.60
2018-11-12T07:58:06.993Z,10.60
2018-11-12T08:00:43.107Z,10.60
2018-11-12T08:03:12.049Z,10.60
2018-11-12T08:05:40.743Z,10.70
2018-11-12T08:08:22.867Z,10.70
2018-11-12T08:11:16.117Z,10.70
2018-11-12T08:13:44.377Z,10.70
2018-11-12T08:16:12.382Z,10.70
2018-11-12T08:18:40.583Z,10.70
2018-11-12T08:21:08.543Z,10.70
2018-11-12T08:23:36.873Z,10.70
2018-11-12T08:26:08.285Z,10.70
2018-11-12T08:28:36.369Z,10.80
2018-11-12T08:31:04.361Z,10.80
2018-11-12T08:33:37.229Z,10.80
2018-11-12T08:36:05.431Z,10.80
2018-11-12T08:38:33.460Z,10.80
2018-11-12T08:41:11.611Z,10.90
2018-11-12T08:43:39.775Z,10.90
2018-11-12T08:46:07.769Z,11.00
2018-11-12T08:48:45.434Z,11.00
2018-11-12T08:51:13.540Z,11.10
2018-11-12T08:53:41.522Z,11.20
2018-11-12T08:56:16.006Z,11.20
2018-11-12T08:58:43.954Z,11.30
2018-11-12T09:01:12.437Z,11.30
2018-11-12T09:03:49.619Z,11.40
2018-11-12T09:06:18.224Z,11.40
2018-11-12T09:08:46.989Z,11.40
2018-11-12T09:11:21.527Z,11.50
2018-11-12T09:13:49.498Z,11.50
2018-11-12T09:16:18.740Z,11.50
2018-11-12T09:18:46.875Z,11.50
2018-11-12T09:21:14.913Z,11.50
2018-11-12T09:23:42.846Z,11.50
2018-11-12T09:26:10.736Z,11.50
2018-11-12T09:28:44.188Z,11.50
2018-11-12T09:31:13.286Z,11.50
2018-11-12T09:33:40.412Z,11.50
2018-11-12T09:36:12.579Z,11.60
2018-11-12T09:38:40.542Z,11.70
2018-11-12T09:41:08.715Z,11.80
2018-11-12T09:43:41.966Z,11.90
2018-11-12T09:46:09.875Z,12.00
2018-11-12T09:48:38.009Z,12.10
2018-11-12T09:53:39.924Z,12.20
2018-11-12T09:56:08.291Z,12.20
2018-11-12T09:58:36.211Z,12.10
2018-11-12T10:01:04.472Z,12.20
2018-11-12T10:03:39.921Z,12.10
2018-11-12T10:06:09.376Z,12.10
2018-11-12T10:08:38.523Z,12.00
2018-11-12T10:11:14.902Z,11.90
2018-11-12T10:13:43.051Z,11.90
2018-11-12T10:16:12.762Z,11.90
2018-11-12T10:18:41.054Z,11.90
2018-11-12T10:21:09.009Z,11.90
2018-11-12T10:23:36.919Z,12.00
2018-11-12T10:26:11.160Z,12.00
2018-11-12T10:28:40.571Z,12.00
2018-11-12T10:31:08.460Z,12.10
2018-11-12T10:33:36.396Z,12.20
2018-11-12T10:36:06.183Z,12.20
2018-11-12T10:38:34.337Z,12.20
2018-11-12T10:41:02.408Z,12.30
2018-11-12T10:43:30.742Z,12.30
2018-11-12T10:46:00.211Z,12.30
2018-11-12T10:48:28.286Z,12.30
2018-11-12T10:51:04.831Z,12.30
2018-11-12T10:53:29.402Z,12.40
2018-11-12T10:55:57.702Z,12.40
2018-11-12T10:58:25.805Z,12.40
2018-11-12T11:01:07.107Z,12.50
2018-11-12T11:04:38.227Z,12.60
2018-11-12T11:07:06.238Z,12.60
2018-11-12T11:09:34.437Z,12.60
2018-11-12T11:14:39.420Z,12.70
2018-11-12T11:17:07.391Z,12.80
2018-11-12T11:19:35.407Z,12.80
2018-11-12T11:27:44.869Z,12.90
2018-11-12T11:30:18.551Z,13.00
2018-11-12T11:32:46.497Z,13.00
2018-11-12T11:35:15.648Z,13.00
2018-11-12T11:37:45.436Z,13.10
2018-11-12T11:40:19.149Z,13.10
2018-11-12T11:42:47.094Z,13.00
2018-11-12T11:45:15.940Z,13.10
2018-11-12T11:47:44.659Z,13.20
2018-11-12T11:50:14.491Z,13.20
2018-11-12T11:52:42.473Z,13.30
2018-11-12T11:55:16.140Z,13.40
2018-11-12T11:57:48.995Z,13.40
2018-11-12T12:00:28.878Z,13.30
2018-11-12T12:02:58.711Z,13.30
2018-11-12T12:05:29.695Z,13.20
2018-11-12T12:08:10.133Z,13.20
2018-11-12T12:10:38.085Z,13.10
2018-11-12T12:13:05.989Z,13.10
2018-11-12T12:15:45.907Z,13.00
2018-11-12T12:18:14.210Z,13.00
2018-11-12T12:20:42.413Z,12.90
2018-11-12T12:23:11.551Z,12.90
2018-11-12T12:25:39.673Z,12.90
2018-11-12T12:28:10.527Z,13.10
2018-11-12T12:30:38.455Z,13.20
2018-11-12T12:33:06.621Z,13.20
2018-11-12T12:35:41.515Z,13.10
2018-11-12T12:38:09.870Z,13.10
2018-11-12T12:40:37.850Z,13.00
2018-11-12T12:43:11.529Z,12.90
2018-11-12T12:45:39.838Z,12.80
2018-11-12T12:48:07.924Z,12.70
2018-11-12T12:50:45.425Z,12.60
2018-11-12T12:53:13.536Z,12.60
2018-11-12T12:55:42.350Z,12.40
2018-11-12T12:58:11.565Z,12.40
2018-11-12T13:00:45.067Z,12.40
2018-11-12T13:03:13.050Z,12.30
2018-11-12T13:05:41.052Z,12.30
2018-11-12T13:08:15.318Z,12.20
2018-11-12T13:10:44.065Z,12.20
2018-11-12T13:13:12.253Z,12.10
2018-11-12T13:15:45.369Z,12.10
2018-11-12T13:18:14.071Z,12.10
2018-11-12T13:20:42.138Z,12.00
2018-11-12T13:23:16.279Z,12.00
2018-11-12T13:25:44.272Z,12.00
2018-11-12T13:28:12.174Z,11.90
2018-11-12T13:30:46.799Z,11.90
2018-11-12T13:33:14.950Z,12.00
2018-11-12T13:35:51.648Z,12.00
2018-11-12T13:38:19.818Z,12.10
2018-11-12T13:40:47.758Z,12.00
2018-11-12T13:43:25.098Z,12.00
2018-11-12T13:45:53.019Z,12.00
2018-11-12T13:48:20.989Z,12.00
2018-11-12T13:50:48.945Z,12.00
2018-11-12T13:53:17.004Z,12.00
2018-11-12T13:55:48.447Z,12.10
2018-11-12T13:58:16.411Z,12.10
2018-11-12T14:00:44.481Z,12.10
2018-11-12T14:03:12.611Z,12.10
2018-11-12T14:05:40.889Z,12.20
2018-11-12T14:08:22.590Z,12.20
2018-11-12T14:10:50.561Z,12.20
2018-11-12T14:13:18.629Z,12.20
2018-11-12T14:15:49.479Z,12.20
2018-11-12T14:18:17.650Z,12.20
2018-11-12T14:20:46.512Z,12.20
2018-11-12T14:23:24.773Z,12.10
2018-11-12T14:25:52.701Z,12.10
2018-11-12T14:28:20.657Z,12.00
2018-11-12T14:30:48.916Z,12.00
2018-11-12T14:33:16.975Z,12.00
2018-11-12T14:35:48.301Z,11.90
2018-11-12T14:38:18.180Z,11.90
2018-11-12T14:40:46.190Z,11.90
2018-11-12T14:43:14.535Z,11.90
2018-11-12T14:45:43.912Z,11.90
2018-11-12T14:48:11.919Z,11.90
2018-11-12T14:50:39.953Z,11.80
2018-11-12T14:53:07.902Z,11.80
2018-11-12T14:55:35.951Z,11.80
2018-11-12T14:58:03.991Z,11.80
2018-11-12T15:00:38.886Z,11.70
2018-11-12T15:03:06.814Z,11.70
2018-11-12T15:05:34.957Z,11.70
2018-11-12T15:08:11.470Z,11.70
2018-11-12T15:10:39.457Z,11.70
2018-11-12T15:13:07.980Z,11.60
2018-11-12T15:15:41.308Z,11.60
2018-11-12T15:18:09.573Z,11.60
2018-11-12T15:20:41.210Z,11.60
2018-11-12T15:23:09.341Z,11.60
2018-11-12T15:25:37.339Z,11.60
2018-11-12T15:28:05.489Z,11.60
2018-11-12T15:30:33.522Z,11.60
2018-11-12T15:33:01.557Z,11.60
2018-11-12T15:35:29.562Z,11.50
2018-11-12T15:37:57.635Z,11.50
2018-11-12T15:40:25.896Z,11.50
2018-11-12T15:43:06.001Z,11.50
2018-11-12T15:45:34.005Z,11.50
2018-11-12T15:48:01.994Z,11.50
2018-11-12T15:50:36.602Z,11.40
2018-11-12T15:53:05.078Z,11.40
2018-11-12T15:55:33.182Z,11.40
2018-11-12T15:58:01.113Z,11.40
2018-11-12T16:00:29.437Z,11.40
2018-11-12T16:05:35.632Z,11.40
2018-11-12T16:08:03.704Z,11.30
2018-11-12T16:16:25.800Z,11.30
2018-11-12T16:18:54.205Z,11.30
2018-11-12T16:21:26.471Z,11.30
2018-11-12T16:23:54.189Z,11.30
2018-11-12T16:26:22.033Z,11.30
2018-11-12T16:28:54.872Z,11.30
2018-11-12T16:31:22.629Z,11.30
2018-11-12T16:33:50.685Z,11.30
2018-11-12T16:36:25.185Z,11.30
2018-11-12T16:38:52.985Z,11.30
2018-11-12T16:41:20.750Z,11.30
2018-11-12T16:43:57.385Z,11.30
2018-11-12T16:46:25.161Z,11.30
2018-11-12T16:48:52.894Z,11.40
2018-11-12T16:51:21.180Z,11.40
2018-11-12T16:53:50.070Z,11.30
2018-11-12T16:56:20.268Z,11.40
2018-11-12T16:58:48.059Z,11.40
2018-11-12T17:01:15.909Z,11.40
2018-11-12T17:03:43.705Z,11.40
2018-11-12T17:06:11.662Z,11.40
2018-11-12T17:08:45.674Z,11.40
2018-11-12T17:11:13.674Z,11.40
2018-11-12T17:13:42.077Z,11.40
2018-11-12T17:16:10.769Z,11.40
2018-11-12T17:18:38.575Z,11.40
2018-11-12T17:21:08.025Z,11.40
2018-11-12T17:23:37.243Z,11.40
2018-11-12T17:26:05.263Z,11.40
2018-11-12T17:28:42.013Z,11.40
2018-11-12T17:31:09.930Z,11.40
2018-11-12T17:33:37.751Z,11.30
2018-11-12T17:36:05.640Z,11.40
2018-11-12T17:38:33.423Z,11.40
2018-11-12T17:41:08.215Z,11.40
2018-11-12T17:43:35.924Z,11.40
2018-11-12T17:46:03.871Z,11.40
2018-11-12T17:48:31.611Z,11.40
2018-11-12T17:51:11.389Z,11.40
2018-11-12T17:53:39.233Z,11.40
2018-11-12T17:56:06.998Z,11.50
2018-11-12T17:58:34.858Z,11.40
2018-11-12T18:01:03.908Z,11.40
2018-11-12T18:03:31.721Z,11.40
2018-11-12T18:05:59.577Z,11.30
2018-11-12T18:08:33.253Z,11.30
2018-11-12T18:11:01.018Z,11.30
2018-11-12T18:13:32.670Z,11.30
2018-11-12T18:16:08.210Z,11.30
2018-11-12T18:18:36.097Z,11.30
2018-11-12T18:21:03.917Z,11.30
2018-11-12T18:23:41.646Z,11.30
2018-11-12T18:26:09.409Z,11.30
2018-11-12T18:28:56.860Z,11.20
2018-11-12T18:31:24.878Z,11.20
2018-11-12T18:34:06.308Z,11.20
2018-11-12T18:36:34.180Z,11.20
2018-11-12T18:39:02.050Z,11.20
2018-11-12T18:41:35.891Z,11.20
2018-11-12T18:44:04.044Z,11.20
2018-11-12T18:46:31.862Z,11.20
2018-11-12T18:48:59.588Z,11.20
2018-11-12T18:51:27.931Z,11.20
2018-11-12T18:53:55.685Z,11.20
2018-11-12T18:56:23.558Z,11.20
2018-11-12T18:58:51.289Z,11.20
2018-11-12T19:01:19.050Z,11.20
2018-11-12T19:03:58.413Z,11.10
2018-11-12T19:06:26.225Z,11.10
2018-11-12T19:08:53.993Z,11.10
2018-11-12T19:11:37.694Z,11.10
2018-11-12T19:14:06.049Z,11.00
2018-11-12T19:16:34.800Z,10.90
2018-11-12T19:19:02.730Z,10.90
2018-11-12T19:21:30.536Z,10.80
2018-11-12T19:23:58.280Z,10.70
2018-11-12T19:26:26.094Z,10.70
2018-11-12T19:28:53.862Z,10.70
2018-11-12T19:31:21.733Z,10.60
2018-11-12T19:33:49.576Z,10.60
2018-11-12T19:36:17.364Z,10.50
2018-11-12T19:38:45.201Z,10.50
2018-11-12T19:41:13.257Z,10.50
2018-11-12T19:43:41.537Z,10.50
2018-11-12T19:46:10.441Z,10.60
2018-11-12T19:48:49.112Z,10.60
2018-11-12T19:51:17.046Z,10.70
2018-11-12T19:53:45.239Z,10.70
2018-11-12T19:56:13.575Z,10.70
2018-11-12T19:58:41.351Z,10.70
2018-11-12T20:01:25.030Z,10.70
2018-11-12T20:03:52.940Z,10.70
2018-11-12T20:06:21.365Z,10.70
2018-11-12T20:08:49.227Z,10.80
2018-11-12T20:11:17.121Z,10.80
2018-11-12T20:13:44.837Z,10.80
2018-11-12T20:16:12.714Z,10.70
2018-11-12T20:18:50.829Z,10.70
2018-11-12T20:21:18.655Z,10.70
2018-11-12T20:23:46.785Z,10.70
2018-11-12T20:26:14.529Z,10.70
2018-11-12T20:28:43.336Z,10.70
2018-11-12T20:31:17.004Z,10.70
2018-11-12T20:33:45.161Z,10.70
2018-11-12T20:36:15.081Z,10.70
2018-11-12T20:38:43.001Z,10.60
2018-11-12T20:41:11.578Z,10.60
2018-11-12T20:43:39.498Z,10.60
2018-11-12T20:46:07.953Z,10.50
2018-11-12T20:48:35.846Z,10.50
2018-11-12T20:51:03.726Z,10.40
2018-11-12T20:53:40.406Z,10.40
2018-11-12T20:56:08.617Z,10.40
2018-11-12T20:58:36.597Z,10.40
2018-11-12T21:01:04.422Z,10.40
2018-11-12T21:03:32.228Z,10.40
2018-11-12T21:06:00.149Z,10.50
2018-11-12T21:08:27.924Z,10.50
2018-11-12T21:10:58.041Z,10.40
2018-11-12T21:13:26.085Z,10.50
2018-11-12T21:15:53.901Z,10.40
2018-11-12T21:18:23.961Z,10.40
2018-11-12T21:20:52.326Z,10.40
2018-11-12T21:23:21.324Z,10.40
2018-11-12T21:25:49.452Z,10.40
2018-11-12T21:28:17.876Z,10.40
2018-11-12T21:30:45.661Z,10.40
2018-11-12T21:33:13.500Z,10.30
2018-11-12T21:35:45.450Z,10.30
2018-11-12T21:38:13.594Z,10.30
2018-11-12T21:40:44.826Z,10.30
2018-11-12T21:43:12.684Z,10.20
2018-11-12T21:45:40.967Z,10.30
2018-11-12T21:50:42.767Z,10.30
2018-11-12T21:53:10.933Z,10.30
2018-11-12T21:55:38.858Z,10.30
2018-11-12T21:58:12.464Z,10.20
2018-11-12T22:00:40.490Z,10.20
2018-11-12T22:03:09.294Z,10.20
2018-11-12T22:05:37.229Z,10.20
2018-11-12T22:08:15.577Z,10.10
2018-11-12T22:13:20.468Z,10.10
2018-11-12T22:15:48.915Z,10.10
2018-11-12T22:18:20.661Z,10.10
2018-11-12T22:20:48.449Z,10.10
2018-11-12T22:23:16.368Z,10.10
2018-11-12T22:25:44.093Z,10.10
2018-11-12T22:28:11.885Z,10.10
2018-11-12T22:30:51.741Z,10.10
2018-11-12T22:33:21.541Z,10.00
2018-11-12T22:35:49.456Z,10.00
2018-11-12T22:38:17.245Z,10.00
2018-11-12T22:40:45.028Z,10.00
2018-11-12T22:43:14.990Z,10.00
2018-11-12T22:45:43.112Z,10.00
2018-11-12T22:48:11.058Z,10.00
2018-11-12T22:50:44.920Z,9.90
2018-11-12T22:53:12.677Z,9.90
2018-11-12T22:55:40.440Z,9.90
2018-11-12T22:58:14.984Z,9.90
2018-11-12T23:00:44.401Z,9.90
2018-11-12T23:03:12.305Z,9.90
2018-11-12T23:05:45.510Z,9.80
2018-11-12T23:08:13.497Z,9.80
2018-11-12T23:10:41.265Z,9.80
2018-11-12T23:13:17.697Z,9.80
2018-11-12T23:15:45.575Z,9.80
2018-11-12T23:18:13.873Z,9.80
2018-11-12T23:20:49.032Z,9.80
2018-11-12T23:23:16.779Z,9.80
2018-11-12T23:25:44.461Z,9.80
2018-11-12T23:28:18.120Z,9.70
2018-11-12T23:30:45.856Z,9.70
2018-11-12T23:33:13.565Z,9.70
2018-11-12T23:35:51.222Z,9.70
2018-11-12T23:38:18.929Z,9.60
2018-11-12T23:40:46.766Z,9.60
2018-11-12T23:43:21.812Z,9.60
2018-11-12T23:45:49.646Z,9.60
2018-11-12T23:48:17.398Z,9.60
2018-11-12T23:50:52.489Z,9.60
2018-11-12T23:53:20.237Z,9.50
2018-11-12T23:55:48.925Z,9.50
2018-11-12T23:58:23.604Z,9.50
